Time;durP1;ratioP1;P1;durP2;ratioP2;P2;SDS_P1;SDS_P2;PMS_P1;PMS_P2;Temp;Humidity;BMP_temperature;BMP_pressure;BME280_temperature;BME280_humidity;BME280_pressure;Samples;Min_cycle;Max_cycle;Signal;HPM_P1;HPM_P2
2023/06/11 00:01:57;;;;;;;7.03;3.45;;;18.60;99.90;;;;;;5085650;28;20583;-71
2023/06/11 00:04:26;;;;;;;4.50;3.67;;;18.60;99.90;;;;;;5084806;28;20414;-71
2023/06/11 00:06:56;;;;;;;4.72;3.22;;;18.60;99.90;;;;;;5084862;28;20119;-71
2023/06/11 00:09:25;;;;;;;8.05;3.70;;;18.50;99.90;;;;;;5084890;28;20098;-70
2023/06/11 00:11:53;;;;;;;4.43;3.40;;;18.50;99.90;;;;;;5085424;28;20078;-71
2023/06/11 00:14:20;;;;;;;6.45;3.40;;;18.50;99.90;;;;;;5085077;28;20043;-71
2023/06/11 00:16:45;;;;;;;6.57;3.83;;;18.50;99.90;;;;;;5067193;28;20044;-70
2023/06/11 00:19:12;;;;;;;7.82;3.55;;;18.40;99.90;;;;;;5065161;28;20033;-71
2023/06/11 00:21:43;;;;;;;7.55;4.20;;;18.40;99.90;;;;;;5064625;28;20049;-71
2023/06/11 00:24:11;;;;;;;7.33;3.47;;;18.40;99.90;;;;;;5047311;28;20036;-72
2023/06/11 00:26:38;;;;;;;9.65;3.67;;;18.40;99.90;;;;;;5065217;28;20353;-71
2023/06/11 00:29:04;;;;;;;8.48;4.28;;;18.40;99.90;;;;;;5047761;28;20041;-70
2023/06/11 00:31:30;;;;;;;6.93;3.15;;;18.40;99.90;;;;;;5066683;28;20119;-70
2023/06/11 00:33:55;;;;;;;11.10;3.95;;;18.40;99.90;;;;;;5084234;28;20119;-71
2023/06/11 00:36:21;;;;;;;8.18;3.35;;;18.30;99.90;;;;;;5064989;28;20042;-71
2023/06/11 00:38:48;;;;;;;3.70;3.00;;;18.30;99.90;;;;;;5084348;28;20032;-70
2023/06/11 00:41:14;;;;;;;5.40;3.75;;;18.30;99.90;;;;;;5066676;28;20394;-70
2023/06/11 00:43:40;;;;;;;8.85;3.60;;;18.30;99.90;;;;;;5067218;28;20221;-70
2023/06/11 00:46:10;;;;;;;7.10;4.13;;;18.30;99.90;;;;;;5066869;28;20561;-70
2023/06/11 00:48:38;;;;;;;8.23;3.17;;;18.30;99.90;;;;;;5084119;28;20575;-70
2023/06/11 00:51:05;;;;;;;7.47;3.88;;;18.30;99.90;;;;;;5065866;28;20068;-71
2023/06/11 00:53:30;;;;;;;12.98;4.03;;;18.30;99.90;;;;;;5084303;28;20079;-71
2023/06/11 00:55:56;;;;;;;12.60;4.55;;;18.30;99.90;;;;;;5084712;28;20068;-71
2023/06/11 00:58:22;;;;;;;6.90;3.53;;;18.20;99.90;;;;;;5083473;28;20077;-70
2023/06/11 01:00:54;;;;;;;9.00;4.28;;;18.20;99.90;;;;;;5064394;28;20503;-71
2023/06/11 01:03:26;;;;;;;9.30;4.45;;;18.30;99.90;;;;;;5081110;28;20047;-71
2023/06/11 01:06:05;;;;;;;4.57;3.78;;;18.20;99.90;;;;;;5080813;28;20047;-70
2023/06/11 01:08:34;;;;;;;9.77;4.43;;;18.20;99.90;;;;;;5141816;23;20090;-70
2023/06/11 01:11:08;;;;;;;8.25;3.50;;;18.20;99.90;;;;;;5000609;28;20143;-70
2023/06/11 01:13:36;;;;;;;5.43;3.58;;;18.20;99.90;;;;;;5003349;28;20044;-71
2023/06/11 01:16:12;;;;;;;7.50;4.47;;;18.20;99.90;;;;;;4984999;28;20095;-71
2023/06/11 01:18:49;;;;;;;7.63;4.13;;;18.20;99.90;;;;;;5003947;28;20046;-70
2023/06/11 01:21:18;;;;;;;8.07;4.07;;;18.10;99.90;;;;;;4999373;28;20053;-70
2023/06/11 01:24:03;;;;;;;8.27;4.13;;;18.10;99.90;;;;;;5001113;28;20054;-71
2023/06/11 01:27:09;;;;;;;5.32;3.60;;;18.10;99.90;;;;;;4983249;28;20080;-71
2023/06/11 01:29:37;;;;;;;7.07;3.67;;;18.10;99.90;;;;;;5003331;28;20088;-71
2023/06/11 01:32:04;;;;;;;12.02;5.68;;;18.00;99.90;;;;;;4971180;28;20651;-71
2023/06/11 01:34:31;;;;;;;8.25;3.83;;;18.00;99.90;;;;;;4970942;28;20125;-71
2023/06/11 01:36:57;;;;;;;6.50;4.13;;;18.00;99.90;;;;;;4970540;28;20118;-71
2023/06/11 01:39:23;;;;;;;7.30;4.30;;;18.00;99.90;;;;;;4988507;28;20046;-70
2023/06/11 01:41:49;;;;;;;13.52;6.07;;;18.00;99.90;;;;;;4988577;28;20627;-70
2023/06/11 01:44:16;;;;;;;8.98;4.65;;;18.00;99.90;;;;;;4969648;28;20050;-70
2023/06/11 01:46:42;;;;;;;6.55;4.22;;;17.90;99.90;;;;;;5007942;28;20084;-70
2023/06/11 01:49:07;;;;;;;9.95;4.70;;;17.90;99.90;;;;;;4990911;28;20042;-70
2023/06/11 01:51:33;;;;;;;12.88;4.85;;;17.90;99.90;;;;;;4989540;28;20046;-71
2023/06/11 01:53:59;;;;;;;8.65;5.15;;;17.90;99.90;;;;;;5008160;28;20038;-71
2023/06/11 01:56:26;;;;;;;5.70;4.22;;;17.90;99.90;;;;;;4990598;28;20045;-71
2023/06/11 01:58:52;;;;;;;7.68;4.53;;;17.90;99.90;;;;;;4990160;28;20054;-70
2023/06/11 02:01:20;;;;;;;9.95;4.53;;;17.90;99.90;;;;;;4989113;28;20492;-70
2023/06/11 02:03:45;;;;;;;10.63;4.82;;;17.90;99.90;;;;;;5008241;28;20042;-71
2023/06/11 02:06:11;;;;;;;6.32;4.50;;;17.90;99.90;;;;;;4989576;28;20072;-70
2023/06/11 02:08:37;;;;;;;9.85;4.85;;;17.80;99.90;;;;;;4990752;28;20082;-70
2023/06/11 02:11:03;;;;;;;6.30;4.38;;;17.80;99.90;;;;;;4990243;28;20750;-70
2023/06/11 02:13:30;;;;;;;7.82;5.10;;;17.80;99.90;;;;;;5006772;28;20559;-70
2023/06/11 02:15:58;;;;;;;9.93;5.18;;;17.80;99.90;;;;;;5007874;28;20077;-70
2023/06/11 02:18:23;;;;;;;12.10;5.20;;;17.80;99.90;;;;;;5007535;28;20050;-71
2023/06/11 02:20:49;;;;;;;6.63;4.95;;;17.80;99.90;;;;;;5004010;28;20088;-70
2023/06/11 02:23:15;;;;;;;8.25;5.25;;;17.80;99.90;;;;;;4989311;28;20121;-70
2023/06/11 02:25:40;;;;;;;5.10;4.45;;;17.70;99.90;;;;;;4990684;28;20053;-70
2023/06/11 02:28:06;;;;;;;9.02;5.03;;;17.70;99.90;;;;;;4988829;28;20052;-70
2023/06/11 02:30:32;;;;;;;6.13;5.30;;;17.70;99.90;;;;;;5007544;28;20124;-71
2023/06/11 02:32:57;;;;;;;7.68;5.03;;;17.70;99.90;;;;;;5007552;28;20038;-71
2023/06/11 02:35:23;;;;;;;7.60;4.95;;;17.70;99.90;;;;;;5005914;28;20053;-70
2023/06/11 02:37:48;;;;;;;8.70;4.53;;;17.70;99.90;;;;;;5006684;28;20042;-70
2023/06/11 02:40:14;;;;;;;6.50;4.32;;;17.60;99.90;;;;;;4989484;28;20125;-70
2023/06/11 02:42:39;;;;;;;7.03;5.32;;;17.60;99.90;;;;;;4989164;28;20050;-70
2023/06/11 02:45:06;;;;;;;7.88;5.20;;;17.60;99.90;;;;;;5007276;28;20555;-71
2023/06/11 02:47:31;;;;;;;8.77;4.90;;;17.60;99.90;;;;;;4972865;28;20053;-70
2023/06/11 02:49:57;;;;;;;7.63;5.38;;;17.50;99.90;;;;;;4987095;28;20041;-71
2023/06/11 02:52:22;;;;;;;8.50;4.93;;;17.50;99.90;;;;;;5006565;28;20037;-70
2023/06/11 02:54:48;;;;;;;8.82;5.15;;;17.50;99.90;;;;;;5006875;28;20476;-70
2023/06/11 02:57:14;;;;;;;7.65;5.40;;;17.50;99.90;;;;;;4989223;28;20416;-70
2023/06/11 02:59:40;;;;;;;8.45;5.47;;;17.50;99.90;;;;;;4989623;28;20183;-70
2023/06/11 03:02:05;;;;;;;7.20;5.38;;;17.40;99.90;;;;;;4993525;28;20539;-71
2023/06/11 03:04:31;;;;;;;6.55;5.03;;;17.40;99.90;;;;;;5005114;28;20072;-70
2023/06/11 03:06:56;;;;;;;10.63;5.70;;;17.40;99.90;;;;;;4988779;28;20045;-70
2023/06/11 03:09:24;;;;;;;7.25;4.88;;;17.40;99.90;;;;;;4972430;28;20049;-70
2023/06/11 03:11:50;;;;;;;9.85;5.13;;;17.40;99.90;;;;;;4989054;28;20054;-70
2023/06/11 03:14:16;;;;;;;6.13;4.78;;;17.40;99.90;;;;;;5006029;28;20073;-71
2023/06/11 03:16:42;;;;;;;7.70;5.47;;;17.40;99.90;;;;;;5006748;28;20088;-70
2023/06/11 03:19:07;;;;;;;7.07;5.35;;;17.40;99.90;;;;;;4973455;28;20052;-71
2023/06/11 03:21:33;;;;;;;6.40;5.18;;;17.40;99.90;;;;;;4987647;28;20132;-70
2023/06/11 03:23:58;;;;;;;8.35;4.82;;;17.40;99.90;;;;;;4988115;28;20046;-70
2023/06/11 03:26:24;;;;;;;8.27;5.90;;;17.40;99.90;;;;;;5005544;28;20045;-71
2023/06/11 03:28:50;;;;;;;6.45;4.75;;;17.40;99.90;;;;;;4987598;28;20077;-70
2023/06/11 03:31:16;;;;;;;6.22;4.82;;;17.40;99.90;;;;;;5004397;28;20475;-69
2023/06/11 03:33:41;;;;;;;6.57;4.75;;;17.40;99.90;;;;;;5006942;28;20034;-70
2023/06/11 03:36:07;;;;;;;7.65;5.22;;;17.40;99.90;;;;;;5005602;28;20152;-72
2023/06/11 03:38:32;;;;;;;7.40;5.43;;;17.30;99.90;;;;;;5005985;28;20107;-70
2023/06/11 03:40:58;;;;;;;6.15;4.38;;;17.40;99.90;;;;;;4988723;28;20029;-70
2023/06/11 03:43:24;;;;;;;8.48;6.07;;;17.40;99.90;;;;;;5005900;28;20033;-70
2023/06/11 03:45:49;;;;;;;10.45;5.07;;;17.30;99.90;;;;;;5006089;28;20476;-71
2023/06/11 03:48:15;;;;;;;7.18;4.90;;;17.30;99.90;;;;;;4988082;28;20129;-70
2023/06/11 03:50:40;;;;;;;9.60;5.38;;;17.30;99.90;;;;;;4987882;28;20046;-70
2023/06/11 03:53:06;;;;;;;7.07;5.50;;;17.30;99.90;;;;;;4971225;28;20042;-71
2023/06/11 03:55:32;;;;;;;7.40;4.78;;;17.30;99.90;;;;;;5005709;28;20451;-70
2023/06/11 03:57:57;;;;;;;7.63;5.05;;;17.30;99.90;;;;;;5005687;28;20049;-71
2023/06/11 04:00:23;;;;;;;7.38;5.03;;;17.40;99.90;;;;;;5005534;28;20046;-71
2023/06/11 04:02:49;;;;;;;8.05;5.25;;;17.40;99.90;;;;;;4986391;28;20042;-70
2023/06/11 04:05:14;;;;;;;7.72;5.45;;;17.40;99.90;;;;;;4985119;28;20042;-70
2023/06/11 04:07:40;;;;;;;7.65;5.18;;;17.40;99.90;;;;;;4989547;28;20049;-71
2023/06/11 04:10:09;;;;;;;7.95;5.53;;;17.40;99.90;;;;;;4971794;28;20409;-70
2023/06/11 04:12:35;;;;;;;8.60;5.15;;;17.40;99.90;;;;;;4955961;28;20431;-71
2023/06/11 04:15:01;;;;;;;6.80;4.72;;;17.40;99.90;;;;;;4971556;28;20077;-71
2023/06/11 04:17:26;;;;;;;7.95;5.10;;;17.40;99.90;;;;;;5005336;28;20053;-70
2023/06/11 04:19:52;;;;;;;7.65;4.93;;;17.40;99.90;;;;;;5004781;28;20045;-70
2023/06/11 04:22:17;;;;;;;10.55;5.65;;;17.40;99.90;;;;;;4987689;28;20049;-71
2023/06/11 04:24:43;;;;;;;7.95;6.35;;;17.50;99.90;;;;;;4971841;28;20046;-70
2023/06/11 04:27:11;;;;;;;9.00;5.57;;;17.50;99.90;;;;;;5005860;28;20476;-71
2023/06/11 04:29:36;;;;;;;7.28;5.47;;;17.50;99.90;;;;;;4988071;28;20107;-71
2023/06/11 04:32:03;;;;;;;8.35;5.32;;;17.50;99.90;;;;;;5005700;28;20496;-70
2023/06/11 04:34:29;;;;;;;9.07;5.65;;;17.50;99.90;;;;;;4986665;28;20050;-71
2023/06/11 04:36:56;;;;;;;8.35;5.55;;;17.50;99.90;;;;;;5005215;28;20042;-70
2023/06/11 04:39:22;;;;;;;7.57;5.30;;;17.50;99.90;;;;;;5004684;28;20523;-70
2023/06/11 04:41:48;;;;;;;8.88;5.95;;;17.50;99.90;;;;;;5005361;28;20070;-71
2023/06/11 04:44:14;;;;;;;8.35;5.82;;;17.60;99.90;;;;;;5004883;28;20111;-70
2023/06/11 04:46:40;;;;;;;10.82;6.35;;;17.60;99.90;;;;;;4988109;28;20473;-70
2023/06/11 04:49:06;;;;;;;9.63;5.40;;;17.60;99.90;;;;;;4987834;28;20049;-71
2023/06/11 04:51:33;;;;;;;8.65;6.07;;;17.60;99.90;;;;;;5003949;28;20503;-71
2023/06/11 04:54:07;;;;;;;10.65;5.50;;;17.60;99.90;;;;;;5004806;28;20046;-71
2023/06/11 04:56:33;;;;;;;8.77;5.78;;;17.70;99.90;;;;;;5003735;28;20590;-70
2023/06/11 04:58:59;;;;;;;8.82;5.72;;;17.70;99.90;;;;;;5005016;28;20046;-70
2023/06/11 05:01:30;;;;;;;8.60;4.93;;;17.70;99.90;;;;;;5002534;28;20045;-70
2023/06/11 05:03:56;;;;;;;9.95;5.82;;;17.70;99.90;;;;;;4986879;28;20042;-71
2023/06/11 05:06:23;;;;;;;9.90;5.95;;;17.80;99.90;;;;;;5005598;28;20127;-70
2023/06/11 05:08:50;;;;;;;9.38;6.05;;;17.80;99.90;;;;;;4991238;28;20081;-71
2023/06/11 05:11:16;;;;;;;8.77;5.68;;;17.80;99.90;;;;;;5008752;28;20061;-71
2023/06/11 05:13:41;;;;;;;8.40;5.82;;;17.80;99.90;;;;;;5009207;28;20117;-70
2023/06/11 05:16:08;;;;;;;11.82;7.18;;;17.90;99.90;;;;;;5008648;28;20050;-70
2023/06/11 05:18:33;;;;;;;10.93;6.13;;;17.90;99.90;;;;;;4990680;28;20056;-71
2023/06/11 05:20:59;;;;;;;8.07;5.95;;;17.90;99.90;;;;;;5006732;28;20495;-71
2023/06/11 05:23:31;;;;;;;9.85;6.32;;;17.90;99.90;;;;;;5008279;28;20476;-71
2023/06/11 05:26:11;;;;;;;9.13;5.28;;;18.00;99.90;;;;;;5008862;28;20076;-70
2023/06/11 05:28:37;;;;;;;11.02;6.07;;;18.00;99.90;;;;;;5008321;28;20073;-70
2023/06/11 05:31:05;;;;;;;12.38;6.57;;;18.00;99.90;;;;;;5008561;28;20046;-71
2023/06/11 05:33:30;;;;;;;9.82;6.07;;;18.10;99.90;;;;;;5008228;28;20045;-70
2023/06/11 05:35:56;;;;;;;10.60;6.25;;;18.10;99.90;;;;;;4989852;28;20120;-71
2023/06/11 05:38:23;;;;;;;8.82;6.07;;;18.10;99.90;;;;;;4990634;28;20237;-70
2023/06/11 05:40:49;;;;;;;9.57;6.40;;;18.20;99.90;;;;;;4990779;28;20058;-71
2023/06/11 05:43:15;;;;;;;8.43;6.32;;;18.20;99.90;;;;;;5007970;28;20044;-71
2023/06/11 05:45:50;;;;;;;7.85;5.88;;;18.20;99.90;;;;;;4991222;28;20042;-70
2023/06/11 05:48:16;;;;;;;9.95;6.07;;;18.30;99.90;;;;;;5007531;28;20700;-70
2023/06/11 05:50:42;;;;;;;8.30;6.10;;;18.30;99.90;;;;;;5005885;28;20049;-72
2023/06/11 05:53:09;;;;;;;10.32;6.65;;;18.30;99.90;;;;;;4987184;28;20042;-70
2023/06/11 05:55:37;;;;;;;8.98;6.28;;;18.40;99.90;;;;;;5003896;28;20058;-70
2023/06/11 05:58:03;;;;;;;7.88;6.25;;;18.40;99.90;;;;;;4986521;28;20073;-70
2023/06/11 06:00:29;;;;;;;9.07;6.75;;;18.40;99.90;;;;;;4985718;28;20092;-71
2023/06/11 06:02:55;;;;;;;8.48;6.63;;;18.50;99.90;;;;;;5003582;28;20796;-71
2023/06/11 06:05:22;;;;;;;7.97;5.65;;;18.50;99.90;;;;;;5004374;28;20558;-71
2023/06/11 06:07:47;;;;;;;7.38;5.53;;;18.60;99.90;;;;;;5008101;28;20038;-70
2023/06/11 06:10:13;;;;;;;7.72;6.28;;;18.60;99.90;;;;;;4989905;28;20061;-71
2023/06/11 06:12:39;;;;;;;9.05;6.47;;;18.60;99.90;;;;;;5007986;28;20038;-71
2023/06/11 06:15:06;;;;;;;8.07;5.57;;;18.70;99.90;;;;;;5007382;28;20146;-70
2023/06/11 06:17:32;;;;;;;8.73;6.22;;;18.70;99.90;;;;;;4988754;28;20068;-71
2023/06/11 06:19:58;;;;;;;7.88;6.45;;;18.80;99.90;;;;;;4989672;28;20856;-70
2023/06/11 06:22:23;;;;;;;11.02;6.35;;;18.80;99.90;;;;;;5007834;28;20098;-71
2023/06/11 06:24:49;;;;;;;7.90;5.82;;;18.80;99.90;;;;;;5007721;28;20045;-70
2023/06/11 06:27:14;;;;;;;7.88;5.75;;;18.90;99.90;;;;;;4989526;28;20050;-71
2023/06/11 06:29:40;;;;;;;8.23;5.55;;;18.90;99.90;;;;;;5007753;28;20501;-70
2023/06/11 06:32:06;;;;;;;10.65;7.72;;;19.00;99.90;;;;;;4989835;28;20050;-71
2023/06/11 06:34:32;;;;;;;7.75;5.45;;;19.00;99.90;;;;;;5006236;28;20069;-70
2023/06/11 06:36:57;;;;;;;9.98;6.57;;;19.10;99.90;;;;;;4987802;28;20049;-69
2023/06/11 06:39:23;;;;;;;9.48;6.95;;;19.10;99.90;;;;;;5003466;28;20042;-70
2023/06/11 06:41:48;;;;;;;10.25;6.72;;;19.20;99.90;;;;;;4988290;28;20492;-70
2023/06/11 06:44:14;;;;;;;9.85;6.90;;;19.20;99.90;;;;;;4989443;28;20459;-71
2023/06/11 06:46:39;;;;;;;8.13;6.15;;;19.30;99.90;;;;;;4989890;28;20133;-71
2023/06/11 06:49:05;;;;;;;8.15;5.80;;;19.30;99.90;;;;;;5006250;28;20049;-70
2023/06/11 06:51:32;;;;;;;7.13;5.80;;;19.40;99.90;;;;;;4989617;28;20625;-70
2023/06/11 06:53:58;;;;;;;8.93;6.07;;;19.40;99.90;;;;;;4989537;28;20153;-70
2023/06/11 06:56:24;;;;;;;9.00;6.10;;;19.50;99.90;;;;;;5006815;28;20488;-70
2023/06/11 06:58:50;;;;;;;8.68;6.45;;;19.50;99.90;;;;;;5006527;28;20044;-71
2023/06/11 07:01:15;;;;;;;8.50;6.30;;;19.60;99.90;;;;;;5004993;28;20396;-71
2023/06/11 07:03:41;;;;;;;5.93;4.93;;;19.70;99.90;;;;;;4989378;28;20042;-70
2023/06/11 07:06:08;;;;;;;8.63;5.70;;;19.70;99.90;;;;;;5006589;28;20146;-70
2023/06/11 07:08:34;;;;;;;6.82;5.93;;;19.70;99.90;;;;;;4988059;28;20065;-71
2023/06/11 07:10:59;;;;;;;12.93;6.53;;;19.80;99.90;;;;;;4989115;28;20058;-71
2023/06/11 07:13:25;;;;;;;9.23;6.28;;;19.80;99.90;;;;;;4993371;28;20046;-72
2023/06/11 07:15:51;;;;;;;8.25;6.40;;;19.90;99.90;;;;;;4989032;28;20050;-71
2023/06/11 07:18:17;;;;;;;7.47;6.30;;;19.90;99.90;;;;;;4986693;28;20490;-71
2023/06/11 07:20:44;;;;;;;8.68;5.57;;;19.90;99.90;;;;;;4985640;28;20046;-71
2023/06/11 07:23:10;;;;;;;7.65;6.18;;;20.00;99.90;;;;;;5005198;28;20550;-71
2023/06/11 07:25:37;;;;;;;10.10;5.85;;;20.00;99.90;;;;;;5006310;28;20045;-70
2023/06/11 07:28:04;;;;;;;11.38;6.28;;;20.10;99.90;;;;;;5005239;28;20078;-71
2023/06/11 07:30:30;;;;;;;10.02;5.22;;;20.10;99.90;;;;;;4986177;28;20463;-71
2023/06/11 07:32:56;;;;;;;7.25;6.03;;;20.10;99.90;;;;;;4988350;28;20125;-72
2023/06/11 07:35:23;;;;;;;9.27;6.18;;;20.20;99.90;;;;;;4979553;28;20129;-71
2023/06/11 07:37:49;;;;;;;7.63;6.20;;;20.20;99.90;;;;;;5001202;28;20038;-71
2023/06/11 07:40:15;;;;;;;7.13;5.97;;;20.30;99.90;;;;;;4986523;28;20532;-72
2023/06/11 07:42:42;;;;;;;8.60;6.35;;;20.30;99.90;;;;;;4982565;28;20618;-71
2023/06/11 07:45:08;;;;;;;6.90;5.75;;;20.40;99.90;;;;;;4969541;28;20042;-71
2023/06/11 07:47:35;;;;;;;9.38;6.35;;;20.40;99.90;;;;;;4988027;28;20042;-71
2023/06/11 07:50:01;;;;;;;7.53;5.93;;;20.40;99.90;;;;;;5004811;28;20048;-71
2023/06/11 07:52:27;;;;;;;8.23;5.90;;;20.50;99.90;;;;;;4988076;28;20077;-81
2023/06/11 07:54:53;;;;;;;9.15;6.78;;;20.60;99.90;;;;;;4987345;28;20085;-80
2023/06/11 07:57:18;;;;;;;10.63;6.15;;;20.60;99.90;;;;;;5004680;28;20044;-89
2023/06/11 07:59:44;;;;;;;9.30;6.13;;;20.70;99.90;;;;;;4982667;28;20045;-78
2023/06/11 08:02:10;;;;;;;7.45;6.13;;;20.70;99.90;;;;;;5004799;28;20388;-81
2023/06/11 08:04:36;;;;;;;9.55;6.65;;;20.80;99.90;;;;;;4984641;28;20414;-77
2023/06/11 08:07:03;;;;;;;8.80;6.13;;;20.80;99.90;;;;;;4972069;28;20549;-83
2023/06/11 08:09:30;;;;;;;7.80;5.88;;;20.80;99.90;;;;;;4975138;28;20057;-81
2023/06/11 08:11:56;;;;;;;8.88;6.45;;;20.90;99.90;;;;;;4984551;28;20041;-78
2023/06/11 08:14:22;;;;;;;9.32;6.35;;;21.00;99.90;;;;;;4987254;28;20132;-81
2023/06/11 08:16:47;;;;;;;8.50;6.57;;;21.00;99.90;;;;;;4986909;28;20065;-82
2023/06/11 08:19:14;;;;;;;8.55;6.25;;;21.10;99.90;;;;;;5003424;28;20428;-82
2023/06/11 08:21:41;;;;;;;8.07;6.22;;;21.10;99.90;;;;;;5004186;28;20045;-83
2023/06/11 08:24:07;;;;;;;9.43;6.18;;;21.10;99.90;;;;;;4970946;28;20042;-80
2023/06/11 08:26:33;;;;;;;8.50;6.32;;;21.20;99.90;;;;;;4988056;28;20046;-81
2023/06/11 08:29:00;;;;;;;8.88;6.03;;;21.20;99.90;;;;;;4972412;28;20042;-84
2023/06/11 08:31:26;;;;;;;8.70;7.25;;;21.30;99.90;;;;;;4987378;28;20177;-82
2023/06/11 08:33:52;;;;;;;8.50;6.65;;;21.40;99.90;;;;;;4970412;28;20058;-84
2023/06/11 08:36:18;;;;;;;11.00;7.00;;;21.40;99.90;;;;;;4987310;28;20681;-82
2023/06/11 08:38:43;;;;;;;9.30;5.75;;;21.40;99.90;;;;;;4981908;28;20073;-79
2023/06/11 08:41:09;;;;;;;8.02;6.05;;;21.50;99.90;;;;;;4969320;28;20038;-76
2023/06/11 08:43:37;;;;;;;7.28;5.72;;;21.50;99.90;;;;;;4984569;28;20064;-86
2023/06/11 08:46:03;;;;;;;8.00;6.68;;;21.60;99.90;;;;;;4992837;28;20640;-86
2023/06/11 08:48:32;;;;;;;7.65;6.15;;;21.60;99.90;;;;;;4986594;28;20034;-76
2023/06/11 08:51:01;;;;;;;9.35;6.10;;;21.70;99.90;;;;;;4997670;28;20138;-86
2023/06/11 08:53:27;;;;;;;8.88;6.30;;;21.70;99.90;;;;;;4997308;28;20046;-83
2023/06/11 08:55:54;;;;;;;8.32;7.00;;;21.80;99.90;;;;;;5005080;28;20049;-82
2023/06/11 08:58:20;;;;;;;8.43;6.63;;;21.80;99.90;;;;;;5003895;28;20084;-83
2023/06/11 09:00:46;;;;;;;8.48;6.43;;;21.90;99.90;;;;;;4966445;28;20459;-85
2023/06/11 09:03:12;;;;;;;7.32;6.60;;;21.90;99.90;;;;;;5004647;28;20037;-79
2023/06/11 09:05:39;;;;;;;8.45;5.97;;;21.90;99.90;;;;;;5002974;28;20042;-81
2023/06/11 09:08:08;;;;;;;8.73;6.93;;;22.00;99.90;;;;;;4987127;28;20060;-76
2023/06/11 09:10:34;;;;;;;10.63;6.57;;;22.00;99.90;;;;;;5004695;28;20809;-77
2023/06/11 09:13:00;;;;;;;11.05;7.07;;;22.10;99.90;;;;;;5005284;28;20052;-76
2023/06/11 09:15:26;;;;;;;7.75;6.38;;;22.10;99.90;;;;;;4984976;28;20169;-80
2023/06/11 09:17:52;;;;;;;6.30;5.45;;;22.10;99.90;;;;;;4978232;28;20038;-74
2023/06/11 09:20:19;;;;;;;6.80;6.13;;;22.20;99.90;;;;;;4979775;28;20049;-84
2023/06/11 09:22:45;;;;;;;9.90;6.03;;;22.10;99.90;;;;;;4984583;28;20038;-82
2023/06/11 09:25:18;;;;;;;7.05;5.75;;;22.10;99.90;;;;;;5001242;28;20488;-79
2023/06/11 09:27:45;;;;;;;7.78;6.22;;;22.20;99.90;;;;;;4986690;28;20082;-82
2023/06/11 09:30:16;;;;;;;8.13;7.00;;;22.20;99.90;;;;;;4983904;28;20143;-79
2023/06/11 09:32:43;;;;;;;9.60;6.13;;;22.30;99.90;;;;;;4980597;28;20042;-76
2023/06/11 09:35:10;;;;;;;7.35;5.90;;;22.30;99.90;;;;;;4985552;28;20112;-83
2023/06/11 09:37:49;;;;;;;6.93;5.45;;;22.40;99.90;;;;;;5003445;28;20400;-75
2023/06/11 09:40:17;;;;;;;7.47;6.10;;;22.50;99.90;;;;;;4999965;28;20046;-83
2023/06/11 09:42:46;;;;;;;9.68;5.75;;;22.50;99.90;;;;;;4997720;28;20042;-84
2023/06/11 09:45:20;;;;;;;7.80;6.50;;;22.50;99.90;;;;;;4969134;28;20034;-83
2023/06/11 09:47:47;;;;;;;9.70;6.95;;;22.50;99.90;;;;;;5002919;28;20513;-79
2023/06/11 09:50:15;;;;;;;7.80;6.30;;;22.60;99.90;;;;;;5001995;28;20504;-84
2023/06/11 09:52:42;;;;;;;9.07;5.97;;;22.70;99.90;;;;;;4990015;28;20042;-85
2023/06/11 09:55:09;;;;;;;8.20;6.40;;;22.70;99.90;;;;;;4991258;28;20050;-83
2023/06/11 09:57:36;;;;;;;7.03;6.18;;;22.70;99.90;;;;;;5007404;28;20556;-77
2023/06/11 10:00:05;;;;;;;7.90;6.35;;;22.80;99.90;;;;;;5007830;28;20228;-85
2023/06/11 10:02:31;;;;;;;6.95;6.25;;;22.90;99.90;;;;;;4989677;28;20045;-84
2023/06/11 10:04:57;;;;;;;7.88;6.20;;;22.90;99.90;;;;;;5005978;28;20306;-83
2023/06/11 10:07:24;;;;;;;8.25;6.32;;;22.90;99.90;;;;;;5006373;28;20050;-80
2023/06/11 10:09:53;;;;;;;7.45;6.60;;;22.90;99.90;;;;;;5006833;28;20057;-79
2023/06/11 10:12:20;;;;;;;7.72;6.32;;;23.00;99.90;;;;;;5006396;28;20050;-80
2023/06/11 10:14:51;;;;;;;7.18;6.35;;;23.00;99.90;;;;;;5006806;28;20463;-83
2023/06/11 10:17:17;;;;;;;7.85;6.20;;;23.00;99.90;;;;;;4984611;28;20042;-78
2023/06/11 10:19:47;;;;;;;7.45;6.53;;;23.10;99.90;;;;;;5001053;28;20053;-80
2023/06/11 10:22:13;;;;;;;7.63;6.57;;;23.10;99.90;;;;;;4988867;28;20121;-82
2023/06/11 10:24:38;;;;;;;8.10;6.85;;;23.20;99.90;;;;;;5007760;28;20455;-78
2023/06/11 10:27:10;;;;;;;6.15;5.55;;;23.30;99.90;;;;;;4985540;28;20044;-84
2023/06/11 10:29:49;;;;;;;9.82;6.00;;;23.30;99.90;;;;;;4988077;28;20081;-81
2023/06/11 10:32:22;;;;;;;8.75;6.90;;;23.40;99.90;;;;;;4988558;28;20359;-80
2023/06/11 10:34:57;;;;;;;5.93;5.32;;;23.40;99.90;;;;;;5005157;28;20044;-82
2023/06/11 10:37:28;;;;;;;8.35;6.10;;;23.40;99.90;;;;;;5002127;28;20045;-78
2023/06/11 10:39:54;;;;;;;7.60;6.22;;;23.50;99.90;;;;;;4982676;28;20055;-76
2023/06/11 10:42:27;;;;;;;7.80;6.47;;;23.60;99.90;;;;;;4964674;28;20046;-79
2023/06/11 10:45:00;;;;;;;7.78;6.00;;;23.60;99.90;;;;;;5006324;28;20084;-77
2023/06/11 10:47:28;;;;;;;7.65;6.65;;;23.60;99.90;;;;;;5004926;28;20057;-81
2023/06/11 10:50:11;;;;;;;7.50;6.57;;;23.70;99.90;;;;;;4971664;28;20140;-79
2023/06/11 10:52:56;;;;;;;6.00;5.40;;;23.70;99.90;;;;;;4982983;28;20038;-80
2023/06/11 10:55:24;;;;;;;8.23;5.78;;;23.90;99.90;;;;;;4978897;28;20060;-80
2023/06/11 10:57:54;;;;;;;7.13;5.38;;;23.90;99.90;;;;;;4989301;28;20038;-72
2023/06/11 11:00:21;;;;;;;11.70;6.57;;;23.90;99.90;;;;;;4989300;28;20042;-79
2023/06/11 11:02:47;;;;;;;6.25;5.50;;;24.00;99.90;;;;;;4986507;28;20041;-78
2023/06/11 11:05:13;;;;;;;7.20;5.72;;;24.00;99.90;;;;;;4988369;28;20176;-80
2023/06/11 11:07:39;;;;;;;6.75;5.22;;;24.10;99.90;;;;;;4990115;28;20552;-79
2023/06/11 11:10:06;;;;;;;7.10;5.63;;;24.20;99.90;;;;;;4989467;28;20058;-79
2023/06/11 11:12:38;;;;;;;5.72;5.13;;;24.30;99.90;;;;;;5006757;28;20046;-85
2023/06/11 11:15:05;;;;;;;;;;;24.30;99.90;;;;;;4976630;28;20097;-79
2023/06/11 11:17:30;;;;;;;6.05;5.38;;;24.30;99.90;;;;;;4978205;28;20586;-80
2023/06/11 11:19:57;;;;;;;6.20;5.50;;;24.30;99.90;;;;;;5003428;28;20034;-80
2023/06/11 11:22:29;;;;;;;6.55;5.78;;;24.30;99.90;;;;;;4974209;28;20129;-79
2023/06/11 11:24:59;;;;;;;6.20;5.60;;;24.30;99.90;;;;;;4984853;28;20045;-82
2023/06/11 11:27:24;;;;;;;5.80;5.18;;;24.40;99.90;;;;;;4988070;28;20056;-85
2023/06/11 11:29:50;;;;;;;6.13;5.10;;;24.50;99.90;;;;;;4968812;28;20046;-78
2023/06/11 11:32:17;;;;;;;7.05;5.68;;;24.50;99.90;;;;;;5006560;28;20100;-82
2023/06/11 11:34:44;;;;;;;5.80;4.93;;;24.60;99.90;;;;;;4987668;28;20121;-83
2023/06/11 11:37:10;;;;;;;6.50;5.43;;;24.70;99.90;;;;;;4988722;28;20041;-84
2023/06/11 11:39:36;;;;;;;5.65;5.05;;;24.70;99.90;;;;;;4983988;28;20421;-77
2023/06/11 11:42:02;;;;;;;5.00;4.50;;;24.70;99.90;;;;;;5004023;28;20037;-78
2023/06/11 11:44:41;;;;;;;9.07;5.53;;;24.70;99.90;;;;;;4964539;28;20129;-74
2023/06/11 11:47:11;;;;;;;7.60;5.18;;;24.70;99.90;;;;;;4982752;28;20093;-77
2023/06/11 11:49:37;;;;;;;5.97;5.35;;;24.80;99.90;;;;;;4984513;28;20361;-76
2023/06/11 11:52:05;;;;;;;6.65;5.13;;;24.90;99.90;;;;;;4986569;28;20048;-87
2023/06/11 11:54:31;;;;;;;6.63;5.93;;;24.90;99.90;;;;;;4970714;28;20033;-86
2023/06/11 11:57:06;;;;;;;7.00;5.38;;;24.90;99.90;;;;;;4987354;28;20566;-78
2023/06/11 11:59:37;;;;;;;14.27;5.75;;;24.90;99.90;;;;;;4987269;28;20056;-76
2023/06/11 12:02:03;;;;;;;6.32;4.60;;;25.00;99.90;;;;;;4981982;28;20042;-71
2023/06/11 12:04:36;;;;;;;5.88;5.03;;;25.10;99.90;;;;;;4986737;28;20550;-71
2023/06/11 12:07:07;;;;;;;9.68;5.10;;;25.10;99.90;;;;;;5005833;28;20084;-70
2023/06/11 12:09:39;;;;;;;6.90;4.72;;;25.20;99.90;;;;;;4987369;28;20058;-70
2023/06/11 12:12:07;;;;;;;7.47;4.78;;;25.20;99.90;;;;;;4986464;28;20042;-69
2023/06/11 12:14:33;;;;;;;5.97;5.00;;;25.20;99.90;;;;;;4971541;28;20483;-70
2023/06/11 12:16:59;;;;;;;5.75;5.18;;;25.10;99.90;;;;;;4987873;28;20558;-69
2023/06/11 12:19:28;;;;;;;8.02;4.93;;;25.00;99.90;;;;;;4983487;28;20403;-72
2023/06/11 12:21:55;;;;;;;9.68;4.85;;;25.00;99.90;;;;;;4987326;28;20400;-70
2023/06/11 12:24:22;;;;;;;6.72;5.28;;;25.00;99.90;;;;;;5003565;28;20073;-71
2023/06/11 12:26:48;;;;;;;5.00;4.50;;;24.90;99.90;;;;;;4967604;28;20073;-70
2023/06/11 12:29:15;;;;;;;5.15;4.68;;;25.00;99.90;;;;;;4969312;28;20106;-70
2023/06/11 12:31:40;;;;;;;5.93;5.28;;;25.00;99.90;;;;;;4989178;28;20076;-72
2023/06/11 12:34:06;;;;;;;7.18;5.00;;;25.10;99.90;;;;;;4996756;28;20504;-70
2023/06/11 12:36:35;;;;;;;4.85;4.45;;;25.10;99.90;;;;;;4998927;28;20107;-70
2023/06/11 12:39:03;;;;;;;5.00;4.55;;;25.20;99.90;;;;;;4986836;28;20168;-70
2023/06/11 12:41:29;;;;;;;4.88;4.38;;;25.30;99.90;;;;;;4987277;28;20543;-70
2023/06/11 12:43:54;;;;;;;5.15;4.65;;;25.30;99.90;;;;;;4988324;28;20188;-71
2023/06/11 12:46:20;;;;;;;5.30;4.80;;;25.40;99.90;;;;;;4987425;28;20041;-70